WetterOnline ( http://www.wetteronline.de )

Wetter aktuell Ostallgäu

Aktuelles Wetter: Hohenpeißenberg (986m)

6-stündlich | Neueste Meldungen
Ortszeit Temperatur Wetter
Mo, 20.08. 2:00 18.7° C wolkenlos
So, 19.08. 20:00 22.7° C leicht bewölkt
So, 19.08. 14:00 23.6° C leicht bewölkt
So, 19.08. 8:00 16.6° C wolkenlos
So, 19.08. 2:00 17.9° C wolkenlos
Sa, 18.08. 20:00 20.7° C fast wolkenlos
Sa, 18.08. 14:00 20.9° C wolkig
Sa, 18.08. 8:00 15.5° C leicht bewölkt
Ortszeit Temperatur Wetter
Mo, 20.08. 4:30 17.7° C bewölkt
Mo, 20.08. 4:20 17.7° C bewölkt
Mo, 20.08. 4:10 18.1° C bewölkt
Mo, 20.08. 4:00 18.0° C bewölkt
Mo, 20.08. 3:50 18.0° C bewölkt
Mo, 20.08. 3:40 17.9° C wolkig
Mo, 20.08. 3:30 17.5° C leicht bewölkt
Mo, 20.08. 3:00 18.0° C wolkig
Mo, 20.08. 2:30 18.4° C leicht bewölkt
Mo, 20.08. 2:00 18.7° C wolkenlos
Mo, 20.08. 1:30 19.3° C leicht bewölkt
Ortszeit Relative Feuchte Sichtweite
Mo, 20.08. 2:00 66% 50 km
So, 19.08. 20:00 48% 25 km
So, 19.08. 14:00 52% 35 km
So, 19.08. 8:00 80% 27 km
So, 19.08. 2:00 70% 26 km
Sa, 18.08. 20:00 57% 30 km
Sa, 18.08. 14:00 70% 30 km
Sa, 18.08. 8:00 85% 15 km
Ortszeit Relative Feuchte Sichtweite
Mo, 20.08. 4:30 72% 30 km
Mo, 20.08. 4:20 72% -
Mo, 20.08. 4:10 69% -
Mo, 20.08. 4:00 70% 30 km
Mo, 20.08. 3:50 70% -
Mo, 20.08. 3:40 71% -
Mo, 20.08. 3:30 73% 30 km
Mo, 20.08. 3:00 70% 30 km
Mo, 20.08. 2:30 69% 40 km
Mo, 20.08. 2:00 66% 50 km
Mo, 20.08. 1:30 64% 40 km
Ortszeit Niederschlagsmenge Niederschlagsart
Mo, 20.08. 2:00 0.0 l/m2 in 6 Std. -
So, 19.08. 20:00 0.0 l/m2 in 12 Std. -
So, 19.08. 14:00 0.0 l/m2 in 6 Std. -
So, 19.08. 8:00 0.0 l/m2 in 12 Std. -
So, 19.08. 2:00 0.0 l/m2 in 6 Std. -
Sa, 18.08. 20:00 0.0 l/m2 in 12 Std. -
Sa, 18.08. 14:00 0.0 l/m2 in 6 Std. -
Sa, 18.08. 8:00 0.0 l/m2 in 12 Std. -
Ortszeit Niederschlagsmenge Niederschlagsart
Mo, 20.08. 4:30 0.0 l/m2 in 1 Std. -
Mo, 20.08. 4:20 keine Meldung -
Mo, 20.08. 4:10 keine Meldung -
Mo, 20.08. 4:00 0.0 l/m2 in 1 Std. -
Mo, 20.08. 3:50 keine Meldung -
Mo, 20.08. 3:40 keine Meldung -
Mo, 20.08. 3:30 0.0 l/m2 in 1 Std. -
Mo, 20.08. 3:00 0.0 l/m2 in 1 Std. -
Mo, 20.08. 2:30 0.0 l/m2 in 1 Std. -
Mo, 20.08. 2:00 0.0 l/m2 in 1 Std. -
Mo, 20.08. 1:30 0.0 l/m2 in 1 Std. -
Ortszeit Stärke Spitze Richtung
km/h Bft. km/h Grad Sektor
Mo, 20.08. 2:00 17 3 28 270° W
So, 19.08. 20:00 7 2 28 20° N
So, 19.08. 14:00 9 2 24 30° NO
So, 19.08. 8:00 7 2 18 180° S
So, 19.08. 2:00 13 3 19 10° N
Sa, 18.08. 20:00 7 2 24 30° NO
Sa, 18.08. 14:00 14 3 25 10° N
Sa, 18.08. 8:00 7 2 32 280° W
Ortszeit Stärke Spitze Richtung
km/h Bft. km/h Grad Sektor
Mo, 20.08. 4:30 13 3 19 280° W
Mo, 20.08. 4:20 13 3 - 280° W
Mo, 20.08. 4:10 11 2 - 290° W
Mo, 20.08. 4:00 9 2 19 320° NW
Mo, 20.08. 3:50 9 2 - 320° NW
Mo, 20.08. 3:40 11 2 - 310° NW
Mo, 20.08. 3:30 11 2 19 300° NW
Mo, 20.08. 3:00 13 3 22 340° N
Mo, 20.08. 2:30 17 3 22 270° W
Mo, 20.08. 2:00 17 3 28 270° W
Mo, 20.08. 1:30 17 3 28 260° W
Ortszeit Untergrenze Bedeckung Gattung
total tief tief mittel hoch
Mo, 20.08. 2:00 - 0/8 0/8 - - -
So, 19.08. 20:00 - 2/8 2/8 Cb - Ci
So, 19.08. 14:00 1200 m 2/8 2/8 Cu - Ci
So, 19.08. 8:00 - 0/8 0/8 - - -
So, 19.08. 2:00 1800 m 0/8 0/8 - - -
Sa, 18.08. 20:00 1500 m 1/8 1/8 Cu - -
Sa, 18.08. 14:00 510 m 6/8 4/8 Cu Ac -
Sa, 18.08. 8:00 3300 m 7/8 7/8 - Ac -
Ortszeit Bedeckungsgrad in Achtel und Wolkenuntergrenze
Mo, 20.08. 4:30 7(1800m) 7(10500m)
Mo, 20.08. 4:20 7(1800m) 7(10500m)
Mo, 20.08. 4:10 3(1500m) 7(1800m) 7(10500m)
Mo, 20.08. 4:00 7(1500m) 7(10500m)
Mo, 20.08. 3:50 7(1500m)
Mo, 20.08. 3:40 5(1500m)
Mo, 20.08. 3:30 1(1500m) 3(10500m)
Mo, 20.08. 3:00 8(10500m)
Mo, 20.08. 2:30 5(10500m)
Mo, 20.08. 2:00 keine Wolken
Mo, 20.08. 1:30 5(9000m)
Ortszeit Stationsdruck (hPa) Tendenz (hPa in 3 Std.)
Mo, 20.08. 2:00 910 + 0,1
So, 19.08. 20:00 909 - 0,2
So, 19.08. 14:00 910 - 0,8
So, 19.08. 8:00 911 + 0,1
So, 19.08. 2:00 911 0,0
Sa, 18.08. 20:00 910 + 0,4
Sa, 18.08. 14:00 910 0,0
Sa, 18.08. 8:00 910 + 0,5
Ortszeit Stationsdruck (hPa) Tendenz (hPa in 3 Std.)
Mo, 20.08. 4:30 910 0,0
Mo, 20.08. 4:20 910 keine Meldung
Mo, 20.08. 4:10 910 keine Meldung
Mo, 20.08. 4:00 910 - 0,2
Mo, 20.08. 3:50 910 keine Meldung
Mo, 20.08. 3:40 910 keine Meldung
Mo, 20.08. 3:30 910 - 0,1
Mo, 20.08. 3:00 909 - 0,5
Mo, 20.08. 2:30 910 - 0,3
Mo, 20.08. 2:00 910 + 0,1
Mo, 20.08. 1:30 910 0,0
Ortszeit Schneehöhe (cm)
Mo, 20.08. 2:00 -
So, 19.08. 20:00 0
So, 19.08. 14:00 0
So, 19.08. 8:00 0
So, 19.08. 2:00 -
Sa, 18.08. 20:00 0
Sa, 18.08. 14:00 0
Sa, 18.08. 8:00 0
Ortszeit Schneehöhe (cm)
Mo, 20.08. 4:30 -
Mo, 20.08. 4:20 -
Mo, 20.08. 4:10 -
Mo, 20.08. 4:00 -
Mo, 20.08. 3:50 -
Mo, 20.08. 3:40 -
Mo, 20.08. 3:30 -
Mo, 20.08. 3:00 -
Mo, 20.08. 2:30 -
Mo, 20.08. 2:00 -
Mo, 20.08. 1:30 -
Link zu dieser Seite / Seite empfehlen

Das Wetter in ...